KIWD Weather

FAA AWOS (Automated Weather Observing System)

Weather observations for the last 3 days click here.

KIWD

METAR
KIWD 200456Z AUTO 21009G16KT 10SM CLR 14/02 A2996 RMK AO2 SLP147 T01390017
KIWD 200356Z AUTO 24005KT 10SM CLR 14/01 A2996 RMK AO2 SLP149 T01440011
TAF
KIWD 192321Z 2000/2024 19011KT P6SM SKC FM200300 20011KT P6SM SKC WS010/22040KT FM201000 20008KT P6SM FEW250 FM201800 19012G18KT P6SM SKC